createdAt,value
2022-10-09T00:02:12.985Z,100.00
2022-10-09T00:07:15.734Z,100.00
2022-10-09T00:12:19.649Z,100.00
2022-10-09T00:17:22.221Z,100.00
2022-10-09T00:22:26.467Z,100.00
2022-10-09T00:27:30.343Z,100.00
2022-10-09T00:32:32.883Z,100.00
2022-10-09T00:37:35.397Z,100.00
2022-10-09T00:42:39.268Z,100.00
2022-10-09T00:47:46.271Z,100.00
2022-10-09T00:52:51.812Z,100.00
2022-10-09T00:57:57.212Z,100.00
2022-10-09T01:03:00.640Z,100.00
2022-10-09T01:08:08.392Z,100.00
2022-10-09T01:13:21.591Z,100.00
2022-10-09T01:18:30.845Z,100.00
2022-10-09T01:23:52.289Z,100.00
2022-10-09T01:29:00.705Z,100.00
2022-10-09T01:34:04.599Z,100.00
2022-10-09T01:39:11.142Z,100.00
2022-10-09T01:44:20.336Z,100.00
2022-10-09T01:49:34.094Z,100.00
2022-10-09T01:54:42.857Z,100.00
2022-10-09T01:59:48.319Z,100.00
2022-10-09T02:04:51.228Z,100.00
2022-10-09T02:09:55.143Z,100.00
2022-10-09T02:14:59.167Z,100.00
2022-10-09T02:20:07.485Z,100.00
2022-10-09T02:25:10.307Z,100.00
2022-10-09T02:30:15.934Z,100.00
2022-10-09T02:35:18.463Z,100.00
2022-10-09T02:40:20.974Z,100.00
2022-10-09T02:45:24.891Z,100.00
2022-10-09T02:50:27.600Z,100.00
2022-10-09T02:55:30.120Z,100.00
2022-10-09T03:00:33.955Z,100.00
2022-10-09T03:05:36.459Z,100.00
2022-10-09T03:10:39.327Z,100.00
2022-10-09T03:15:43.186Z,100.00
2022-10-09T03:20:46.107Z,100.00
2022-10-09T03:25:56.554Z,100.00
2022-10-09T03:31:00.909Z,100.00
2022-10-09T03:36:04.548Z,100.00
2022-10-09T03:41:07.702Z,100.00
2022-10-09T03:46:12.221Z,100.00
2022-10-09T03:51:14.844Z,100.00
2022-10-09T03:56:17.366Z,100.00
2022-10-09T04:01:21.328Z,100.00
2022-10-09T04:06:23.892Z,100.00
2022-10-09T04:11:26.412Z,100.00
2022-10-09T04:16:30.342Z,100.00
2022-10-09T04:21:33.620Z,100.00
2022-10-09T04:26:36.289Z,100.00
2022-10-09T04:31:40.283Z,100.00
2022-10-09T04:36:42.839Z,100.00
2022-10-09T04:41:45.396Z,100.00
2022-10-09T04:46:50.959Z,100.00
2022-10-09T04:51:53.478Z,100.00
2022-10-09T04:56:55.979Z,100.00
2022-10-09T05:01:59.897Z,100.00
2022-10-09T05:07:02.463Z,100.00
2022-10-09T05:12:05.312Z,100.00
2022-10-09T05:17:13.988Z,100.00
2022-10-09T05:22:17.211Z,100.00
2022-10-09T05:27:19.855Z,100.00
2022-10-09T05:32:23.916Z,100.00
2022-10-09T05:37:26.428Z,100.00
2022-10-09T05:42:28.918Z,100.00
2022-10-09T05:47:32.764Z,100.00
2022-10-09T05:52:36.672Z,100.00
2022-10-09T05:57:39.196Z,100.00
2022-10-09T06:02:43.087Z,100.00
2022-10-09T06:07:46.763Z,100.00
2022-10-09T06:12:49.491Z,100.00
2022-10-09T06:17:53.556Z,100.00
2022-10-09T06:22:56.052Z,100.00
2022-10-09T06:27:58.967Z,100.00
2022-10-09T06:33:02.788Z,100.00
2022-10-09T06:38:05.317Z,100.00
2022-10-09T06:43:08.350Z,100.00
2022-10-09T06:48:12.225Z,100.00
2022-10-09T06:53:14.716Z,100.00
2022-10-09T06:58:17.228Z,100.00
2022-10-09T07:03:21.080Z,100.00
2022-10-09T07:08:23.586Z,100.00
2022-10-09T07:13:26.105Z,100.00
2022-10-09T07:18:30.026Z,100.00
2022-10-09T07:23:33.639Z,100.00
2022-10-09T07:28:36.297Z,100.00
2022-10-09T07:33:41.511Z,100.00
2022-10-09T07:38:44.089Z,100.00
2022-10-09T07:43:46.747Z,100.00
2022-10-09T07:48:51.101Z,100.00
2022-10-09T07:53:54.226Z,100.00
2022-10-09T07:58:58.618Z,100.00
2022-10-09T08:04:03.228Z,100.00
2022-10-09T08:09:07.731Z,100.00
2022-10-09T08:14:18.035Z,100.00
2022-10-09T08:19:23.429Z,100.00
2022-10-09T08:24:25.947Z,100.00
2022-10-09T08:29:29.764Z,100.00
2022-10-09T08:34:33.620Z,100.00
2022-10-09T08:39:36.307Z,100.00
2022-10-09T08:44:41.305Z,100.00
2022-10-09T08:49:52.032Z,100.00
2022-10-09T08:55:00.358Z,100.00
2022-10-09T09:00:02.927Z,100.00
2022-10-09T09:05:23.769Z,100.00
2022-10-09T09:10:38.010Z,100.00
2022-10-09T09:15:48.212Z,100.00
2022-10-09T09:20:54.993Z,100.00
2022-10-09T09:25:59.489Z,100.00
2022-10-09T09:31:09.272Z,100.00
2022-10-09T09:36:18.760Z,100.00
2022-10-09T09:41:21.350Z,100.00
2022-10-09T09:46:28.416Z,100.00
2022-10-09T09:51:33.483Z,100.00
2022-10-09T09:57:06.946Z,100.00
2022-10-09T10:02:05.026Z,100.00
2022-10-09T10:07:09.057Z,100.00
2022-10-09T10:12:18.421Z,100.00
2022-10-09T10:17:29.348Z,100.00
2022-10-09T10:22:33.472Z,98.76
2022-10-09T10:27:41.544Z,98.85
2022-10-09T10:32:52.018Z,96.87
2022-10-09T10:38:05.340Z,96.44
2022-10-09T10:43:16.613Z,94.68
2022-10-09T10:48:22.679Z,95.83
2022-10-09T10:53:42.216Z,94.18
2022-10-09T10:58:56.499Z,95.36
2022-10-09T11:04:14.414Z,94.03
2022-10-09T11:09:27.387Z,92.27
2022-10-09T11:14:41.716Z,93.08
2022-10-09T11:20:05.385Z,89.87
2022-10-09T11:25:22.709Z,90.16
2022-10-09T11:30:28.454Z,89.77
2022-10-09T11:35:38.392Z,86.58
2022-10-09T11:40:44.213Z,86.49
2022-10-09T11:45:51.678Z,86.41
2022-10-09T11:51:01.496Z,90.08
2022-10-09T11:56:08.866Z,85.61
2022-10-09T12:01:20.088Z,86.00
2022-10-09T12:06:22.674Z,83.37
2022-10-09T12:11:27.189Z,84.88
2022-10-09T12:16:39.736Z,76.87
2022-10-09T12:21:48.937Z,79.18
2022-10-09T12:26:55.787Z,77.42
2022-10-09T12:32:04.588Z,76.00
2022-10-09T12:37:16.011Z,76.82
2022-10-09T12:42:23.813Z,75.51
2022-10-09T12:47:29.006Z,76.59
2022-10-09T12:52:32.678Z,72.81
2022-10-09T12:57:36.920Z,71.46
2022-10-09T13:02:41.113Z,71.08
2022-10-09T13:07:48.413Z,70.36
2022-10-09T13:12:55.529Z,69.62
2022-10-09T13:17:58.432Z,68.76
2022-10-09T13:23:02.856Z,66.73
2022-10-09T13:28:07.275Z,66.67
2022-10-09T13:33:14.165Z,66.22
2022-10-09T13:38:20.137Z,64.22
2022-10-09T13:43:26.615Z,64.69
2022-10-09T13:48:31.096Z,67.64
2022-10-09T13:53:33.850Z,64.93
2022-10-09T13:58:38.070Z,69.87
2022-10-09T14:03:41.249Z,76.77
2022-10-09T14:08:43.933Z,70.19
2022-10-09T14:13:48.189Z,71.23
2022-10-09T14:18:51.762Z,69.14
2022-10-09T14:23:54.732Z,69.49
2022-10-09T14:29:01.251Z,69.15
2022-10-09T14:34:04.065Z,68.23
2022-10-09T14:39:06.572Z,68.89
2022-10-09T14:44:11.009Z,69.11
2022-10-09T14:49:14.098Z,69.52
2022-10-09T14:54:16.689Z,72.08
2022-10-09T14:59:20.686Z,69.67
2022-10-09T15:04:23.228Z,67.85
2022-10-09T15:09:26.075Z,68.55
2022-10-09T15:14:30.026Z,68.30
2022-10-09T15:19:32.751Z,67.82
2022-10-09T15:24:35.679Z,68.51
2022-10-09T15:29:39.756Z,69.52
2022-10-09T15:34:42.391Z,69.09
2022-10-09T15:39:44.911Z,70.24
2022-10-09T15:44:48.801Z,69.48
2022-10-09T15:49:53.448Z,67.40
2022-10-09T15:54:56.077Z,68.59
2022-10-09T16:00:00.922Z,68.47
2022-10-09T16:05:05.073Z,70.08
2022-10-09T16:10:08.234Z,70.48
2022-10-09T16:15:12.497Z,71.39
2022-10-09T16:20:15.209Z,70.91
2022-10-09T16:25:17.984Z,72.61
2022-10-09T16:30:22.040Z,73.23
2022-10-09T16:35:24.568Z,73.63
2022-10-09T16:40:49.852Z,75.72
2022-10-09T16:45:50.994Z,75.39
2022-10-09T16:50:53.668Z,77.48
2022-10-09T16:55:56.232Z,77.33
2022-10-09T17:01:06.089Z,77.65
2022-10-09T17:06:14.748Z,79.37
2022-10-09T17:11:18.088Z,79.37
2022-10-09T17:16:22.981Z,80.00
2022-10-09T17:21:27.952Z,80.86
2022-10-09T17:26:34.246Z,82.16
2022-10-09T17:31:38.100Z,82.13
2022-10-09T17:36:42.496Z,81.74
2022-10-09T17:41:46.947Z,83.76
2022-10-09T17:46:50.837Z,85.26
2022-10-09T17:51:54.378Z,87.39
2022-10-09T17:57:00.097Z,86.29
2022-10-09T18:02:04.427Z,87.02
2022-10-09T18:07:07.021Z,89.34
2022-10-09T18:12:09.605Z,90.65
2022-10-09T18:17:13.480Z,90.83
2022-10-09T18:22:16.008Z,90.81
2022-10-09T18:27:18.536Z,90.00
2022-10-09T18:32:22.519Z,91.78
2022-10-09T18:37:25.145Z,92.66
2022-10-09T18:42:27.773Z,93.25
2022-10-09T18:47:35.793Z,92.58
2022-10-09T18:52:40.726Z,93.23
2022-10-09T18:57:43.886Z,94.37
2022-10-09T19:02:47.780Z,94.49
2022-10-09T19:07:50.616Z,93.01
2022-10-09T19:12:54.283Z,94.60
2022-10-09T19:17:58.300Z,93.47
2022-10-09T19:23:00.930Z,93.93
2022-10-09T19:28:03.464Z,94.37
2022-10-09T19:33:07.331Z,94.96
2022-10-09T19:38:10.346Z,95.22
2022-10-09T19:43:14.079Z,95.13
2022-10-09T19:48:20.265Z,96.75
2022-10-09T19:53:22.821Z,96.83
2022-10-09T19:58:25.345Z,97.69
2022-10-09T20:03:29.767Z,97.12
2022-10-09T20:08:32.393Z,97.63
2022-10-09T20:13:36.336Z,97.56
2022-10-09T20:18:42.160Z,97.69
2022-10-09T20:23:45.333Z,98.46
2022-10-09T20:28:49.152Z,97.82
2022-10-09T20:33:54.385Z,97.91
2022-10-09T20:38:57.799Z,98.38
2022-10-09T20:44:02.732Z,98.55
2022-10-09T20:49:09.375Z,98.61
2022-10-09T20:54:16.479Z,99.06
2022-10-09T20:59:19.493Z,98.84
2022-10-09T21:04:23.352Z,98.79
2022-10-09T21:09:30.855Z,98.77
2022-10-09T21:14:35.579Z,98.78
2022-10-09T21:19:39.453Z,99.93
2022-10-09T21:24:41.990Z,99.18
2022-10-09T21:29:44.579Z,99.34
2022-10-09T21:34:48.620Z,100.00
2022-10-09T21:39:51.142Z,99.46
2022-10-09T21:44:53.647Z,99.55
2022-10-09T21:49:57.549Z,99.32
2022-10-09T21:55:00.126Z,98.19
2022-10-09T22:00:03.071Z,99.50
2022-10-09T22:05:09.775Z,98.99
2022-10-09T22:10:12.578Z,98.68
2022-10-09T22:15:15.127Z,98.63
2022-10-09T22:20:19.163Z,97.04
2022-10-09T22:25:21.727Z,97.13
2022-10-09T22:30:24.660Z,97.44
2022-10-09T22:35:28.744Z,97.05
2022-10-09T22:40:31.268Z,97.93
2022-10-09T22:45:37.739Z,97.00
2022-10-09T22:50:41.593Z,97.20
2022-10-09T22:55:44.130Z,97.00
2022-10-09T23:00:46.639Z,97.01
2022-10-09T23:05:50.518Z,96.95
2022-10-09T23:10:53.049Z,96.87
2022-10-09T23:15:56.030Z,98.43
2022-10-09T23:21:03.401Z,98.33
2022-10-09T23:26:06.742Z,98.86
2022-10-09T23:31:10.972Z,97.89
2022-10-09T23:36:17.136Z,98.30
2022-10-09T23:41:21.580Z,99.27
2022-10-09T23:46:26.796Z,98.98
2022-10-09T23:51:31.382Z,98.58
2022-10-09T23:56:36.942Z,98.85
